createdAt,value
2023-02-19T00:00:09.157Z,3.25
2023-02-19T00:02:46.467Z,3.28
2023-02-19T00:05:14.452Z,5.47
2023-02-19T00:07:43.236Z,5.63
2023-02-19T00:10:11.136Z,5.15
2023-02-19T00:12:39.160Z,6.20
2023-02-19T00:15:07.492Z,8.07
2023-02-19T00:17:35.367Z,4.05
2023-02-19T00:20:04.764Z,3.88
2023-02-19T00:22:32.686Z,4.55
2023-02-19T00:25:00.653Z,6.22
2023-02-19T00:27:28.624Z,5.07
2023-02-19T00:29:56.502Z,3.40
2023-02-19T00:32:24.388Z,3.58
2023-02-19T00:34:52.313Z,3.53
2023-02-19T00:37:21.579Z,4.53
2023-02-19T00:39:49.778Z,2.50
2023-02-19T00:42:17.683Z,4.05
2023-02-19T00:44:45.589Z,3.75
2023-02-19T00:47:15.558Z,4.70
2023-02-19T00:49:43.454Z,3.58
2023-02-19T00:52:11.413Z,7.38
2023-02-19T00:54:40.734Z,3.38
2023-02-19T00:57:08.647Z,4.60
2023-02-19T00:59:37.055Z,3.35
2023-02-19T01:02:05.305Z,11.52
2023-02-19T01:04:33.218Z,3.50
2023-02-19T01:07:01.190Z,3.65
2023-02-19T01:09:29.311Z,3.30
2023-02-19T01:11:59.030Z,5.20
2023-02-19T01:14:27.251Z,2.97
2023-02-19T01:16:55.175Z,7.80
2023-02-19T01:19:23.180Z,5.70
2023-02-19T01:21:51.227Z,3.25
2023-02-19T01:24:19.205Z,7.82
2023-02-19T01:26:47.176Z,3.80
2023-02-19T01:29:16.537Z,8.00
2023-02-19T01:31:44.690Z,3.30
2023-02-19T01:34:14.808Z,5.55
2023-02-19T01:36:43.137Z,4.28
2023-02-19T01:39:12.074Z,3.13
2023-02-19T01:41:41.753Z,3.75
2023-02-19T01:44:48.183Z,3.30
2023-02-19T01:47:19.757Z,3.60
2023-02-19T01:49:51.730Z,7.13
2023-02-19T01:52:25.645Z,3.58
2023-02-19T01:54:55.415Z,2.58
2023-02-19T01:57:27.459Z,3.53
2023-02-19T01:59:59.500Z,3.85
2023-02-19T02:02:28.781Z,3.55
2023-02-19T02:04:57.235Z,3.55
2023-02-19T02:07:42.534Z,5.05
2023-02-19T02:10:22.810Z,3.13
2023-02-19T02:12:51.974Z,3.47
2023-02-19T02:15:20.609Z,5.65
2023-02-19T02:17:57.528Z,9.30
2023-02-19T02:20:44.631Z,4.82
2023-02-19T02:23:20.962Z,2.88
2023-02-19T02:26:07.476Z,5.75
2023-02-19T02:28:59.669Z,4.10
2023-02-19T02:31:34.120Z,9.70
2023-02-19T02:34:07.001Z,4.57
2023-02-19T02:36:39.018Z,5.90
2023-02-19T02:39:11.875Z,4.70
2023-02-19T02:41:44.412Z,5.65
2023-02-19T02:44:12.728Z,5.25
2023-02-19T02:46:45.847Z,4.80
2023-02-19T02:49:21.352Z,4.63
2023-02-19T02:51:53.723Z,3.85
2023-02-19T02:54:56.263Z,3.45
2023-02-19T02:57:25.031Z,3.65
2023-02-19T02:59:57.368Z,2.35
2023-02-19T03:02:30.321Z,4.55
2023-02-19T03:05:22.069Z,4.50
2023-02-19T03:07:55.849Z,2.90
2023-02-19T03:10:29.884Z,3.55
2023-02-19T03:13:17.757Z,4.00
2023-02-19T03:16:17.534Z,5.80
2023-02-19T03:19:08.466Z,2.92
2023-02-19T03:21:39.211Z,2.92
2023-02-19T03:24:30.590Z,3.70
2023-02-19T03:27:00.814Z,3.85
2023-02-19T03:29:36.477Z,3.42
2023-02-19T03:32:10.941Z,4.28
2023-02-19T03:34:47.320Z,2.88
2023-02-19T03:37:21.694Z,6.70
2023-02-19T03:39:49.857Z,4.60
2023-02-19T03:42:26.673Z,6.53
2023-02-19T03:45:08.790Z,3.90
2023-02-19T03:47:44.625Z,2.83
2023-02-19T03:50:19.118Z,3.90
2023-02-19T03:52:55.168Z,4.40
2023-02-19T03:55:31.120Z,3.50
2023-02-19T03:58:07.014Z,3.95
2023-02-19T04:00:41.625Z,3.67
2023-02-19T04:03:16.979Z,4.65
2023-02-19T04:05:52.038Z,2.72
2023-02-19T04:08:22.804Z,4.95
2023-02-19T04:11:00.013Z,5.00
2023-02-19T04:13:35.393Z,2.83
2023-02-19T04:16:08.556Z,2.60
2023-02-19T04:18:40.785Z,4.13
2023-02-19T04:21:11.529Z,3.00
2023-02-19T04:23:43.258Z,2.65
2023-02-19T04:26:13.184Z,5.40
2023-02-19T04:28:42.924Z,3.70
2023-02-19T04:31:11.991Z,2.40
2023-02-19T04:33:40.131Z,3.53
2023-02-19T04:36:11.879Z,4.05
2023-02-19T04:38:39.809Z,3.75
2023-02-19T04:41:07.743Z,3.15
2023-02-19T04:43:35.693Z,4.38
2023-02-19T04:46:04.033Z,3.78
2023-02-19T04:48:31.994Z,4.57
2023-02-19T04:50:59.889Z,4.18
2023-02-19T04:53:29.208Z,5.32
2023-02-19T04:55:57.065Z,5.05
2023-02-19T04:58:24.975Z,5.72
2023-02-19T05:00:53.841Z,3.20
2023-02-19T05:03:21.835Z,3.03
2023-02-19T05:05:49.772Z,4.43
2023-02-19T05:08:17.614Z,3.00
2023-02-19T05:10:46.882Z,4.10
2023-02-19T05:13:16.861Z,2.88
2023-02-19T05:15:55.723Z,4.25
2023-02-19T05:18:23.763Z,3.05
2023-02-19T05:20:52.231Z,11.48
2023-02-19T05:23:20.896Z,5.50
2023-02-19T05:25:56.518Z,13.57
2023-02-19T05:28:28.747Z,2.92
2023-02-19T05:30:57.555Z,2.70
2023-02-19T05:33:27.264Z,3.05
2023-02-19T05:35:56.403Z,3.95
2023-02-19T05:38:24.951Z,3.42
2023-02-19T05:40:52.949Z,3.50
2023-02-19T05:43:22.272Z,3.13
2023-02-19T05:45:50.181Z,4.30
2023-02-19T05:48:18.118Z,2.80
2023-02-19T05:50:46.045Z,5.75
2023-02-19T05:53:14.021Z,2.67
2023-02-19T05:55:41.906Z,2.97
2023-02-19T05:58:09.839Z,2.83
2023-02-19T06:00:39.093Z,3.05
2023-02-19T06:03:06.971Z,5.18
2023-02-19T06:05:34.910Z,5.68
2023-02-19T06:08:02.814Z,2.75
2023-02-19T06:10:30.843Z,3.22
2023-02-19T06:12:58.777Z,2.65
2023-02-19T06:15:26.628Z,4.70
2023-02-19T06:17:55.853Z,3.78
2023-02-19T06:20:25.987Z,2.65
2023-02-19T06:22:54.189Z,3.50
2023-02-19T06:25:22.319Z,2.95
2023-02-19T06:27:50.256Z,4.63
2023-02-19T06:30:18.276Z,11.40
2023-02-19T06:32:46.239Z,2.50
2023-02-19T06:35:15.598Z,2.78
2023-02-19T06:37:43.456Z,3.45
2023-02-19T06:40:11.740Z,2.88
2023-02-19T06:42:39.754Z,4.63
2023-02-19T06:45:08.178Z,2.40
2023-02-19T06:47:36.291Z,2.40
2023-02-19T06:50:04.317Z,5.00
2023-02-19T06:52:33.619Z,2.58
2023-02-19T06:55:01.641Z,4.60
2023-02-19T06:57:29.573Z,2.88
2023-02-19T06:59:57.477Z,2.15
2023-02-19T07:02:26.230Z,4.68
2023-02-19T07:04:54.212Z,4.25
2023-02-19T07:07:22.126Z,4.70
2023-02-19T07:09:51.370Z,3.55
2023-02-19T07:12:19.504Z,3.25
2023-02-19T07:14:48.013Z,4.95
2023-02-19T07:17:15.982Z,3.70
2023-02-19T07:19:43.915Z,10.75
2023-02-19T07:22:11.881Z,3.67
2023-02-19T07:24:39.822Z,4.43
2023-02-19T07:27:09.127Z,3.97
2023-02-19T07:29:37.064Z,3.47
2023-02-19T07:32:05.480Z,3.53
2023-02-19T07:34:33.410Z,3.67
2023-02-19T07:37:01.282Z,5.03
2023-02-19T07:39:29.337Z,3.22
2023-02-19T07:41:58.639Z,6.75
2023-02-19T07:44:32.466Z,2.60
2023-02-19T07:47:00.406Z,2.38
2023-02-19T07:49:28.711Z,2.97
2023-02-19T07:51:56.606Z,8.32
2023-02-19T07:54:24.488Z,6.80
2023-02-19T07:56:52.389Z,4.05
2023-02-19T07:59:21.543Z,2.65
2023-02-19T08:02:08.449Z,3.33
2023-02-19T08:04:36.722Z,3.60
2023-02-19T08:07:05.368Z,6.20
2023-02-19T08:09:34.310Z,2.20
2023-02-19T08:12:19.695Z,4.10
2023-02-19T08:14:47.576Z,2.83
2023-02-19T08:17:16.931Z,3.95
2023-02-19T08:19:44.897Z,4.63
2023-02-19T08:22:12.770Z,5.65
2023-02-19T08:24:42.964Z,7.10
2023-02-19T08:27:10.929Z,9.65
2023-02-19T08:29:38.880Z,2.00
2023-02-19T08:32:06.871Z,3.08
2023-02-19T08:34:36.961Z,3.45
2023-02-19T08:37:04.816Z,5.22
2023-02-19T08:39:33.613Z,3.15
2023-02-19T08:42:01.582Z,2.55
2023-02-19T08:44:29.736Z,4.25
2023-02-19T08:46:57.713Z,3.13
2023-02-19T08:49:27.866Z,2.63
2023-02-19T08:51:57.152Z,3.47
2023-02-19T08:54:25.050Z,2.90
2023-02-19T08:56:53.057Z,2.85
2023-02-19T08:59:20.951Z,2.80
2023-02-19T09:01:49.090Z,5.50
2023-02-19T09:04:17.092Z,4.10
2023-02-19T09:06:45.099Z,4.40
2023-02-19T09:09:14.417Z,3.35
2023-02-19T09:11:42.892Z,2.92
2023-02-19T09:14:11.004Z,4.07
2023-02-19T09:16:38.952Z,3.92
2023-02-19T09:19:06.837Z,2.92
2023-02-19T09:21:34.776Z,2.20
2023-02-19T09:24:02.673Z,2.92
2023-02-19T09:26:36.028Z,3.08
2023-02-19T09:29:05.595Z,8.10
2023-02-19T09:31:35.270Z,3.70
2023-02-19T09:34:03.323Z,7.53
2023-02-19T09:36:33.384Z,3.17
2023-02-19T09:39:02.101Z,8.95
2023-02-19T09:41:32.496Z,4.97
2023-02-19T09:44:04.322Z,6.03
2023-02-19T09:46:35.657Z,7.00
2023-02-19T09:49:08.056Z,6.72
2023-02-19T09:51:38.960Z,6.25
2023-02-19T09:54:12.267Z,7.28
2023-02-19T09:56:40.294Z,10.77
2023-02-19T09:59:19.381Z,8.73
2023-02-19T10:01:50.393Z,6.05
2023-02-19T10:04:18.430Z,6.57
2023-02-19T10:06:47.534Z,6.93
2023-02-19T10:09:22.585Z,6.32
2023-02-19T10:11:55.523Z,5.65
2023-02-19T10:14:35.616Z,11.10
2023-02-19T10:17:06.999Z,11.50
2023-02-19T10:19:35.592Z,4.97
2023-02-19T10:22:05.267Z,5.32
2023-02-19T10:24:33.299Z,5.43
2023-02-19T10:27:01.260Z,7.80
2023-02-19T10:29:30.549Z,8.90
2023-02-19T10:32:17.079Z,6.93
2023-02-19T10:34:45.228Z,6.28
2023-02-19T10:37:16.711Z,4.82
2023-02-19T10:39:47.617Z,4.85
2023-02-19T10:42:17.629Z,7.25
2023-02-19T10:44:49.449Z,4.90
2023-02-19T10:47:20.188Z,6.35
2023-02-19T10:49:49.628Z,5.75
2023-02-19T10:52:21.793Z,6.30
2023-02-19T10:54:53.278Z,10.10
2023-02-19T10:57:35.050Z,5.05
2023-02-19T11:00:24.215Z,5.95
2023-02-19T11:03:19.381Z,4.25
2023-02-19T11:06:02.389Z,5.57
2023-02-19T11:08:38.709Z,4.65
2023-02-19T11:11:07.573Z,15.45
2023-02-19T11:13:37.983Z,35.63
2023-02-19T11:16:07.740Z,75.60
2023-02-19T11:18:36.096Z,58.45
2023-02-19T11:21:10.795Z,59.22
2023-02-19T11:23:45.890Z,56.72
2023-02-19T11:26:19.752Z,76.38
2023-02-19T11:28:59.289Z,76.32
2023-02-19T11:31:32.030Z,76.88
2023-02-19T11:34:01.338Z,73.97
2023-02-19T11:36:32.347Z,81.50
2023-02-19T11:39:04.178Z,65.10
2023-02-19T11:41:57.274Z,89.63
2023-02-19T11:44:36.232Z,69.00
2023-02-19T11:47:30.347Z,73.90
2023-02-19T11:50:07.514Z,55.42
2023-02-19T11:52:39.866Z,82.82
2023-02-19T11:55:16.174Z,53.78
2023-02-19T11:57:47.730Z,57.13
2023-02-19T12:00:24.784Z,50.17
2023-02-19T12:03:38.053Z,64.38
2023-02-19T12:06:20.485Z,59.63
2023-02-19T12:09:19.924Z,69.63
2023-02-19T12:12:06.378Z,54.40
2023-02-19T12:15:03.708Z,37.13
2023-02-19T12:17:48.932Z,67.95
2023-02-19T12:20:31.713Z,46.65
2023-02-19T12:23:20.096Z,77.18
2023-02-19T12:25:58.561Z,41.50
2023-02-19T12:28:48.949Z,36.13
2023-02-19T12:31:49.442Z,55.85
2023-02-19T12:34:38.552Z,52.78
2023-02-19T12:37:21.958Z,44.72
2023-02-19T12:40:07.313Z,47.67
2023-02-19T12:42:51.251Z,44.05
2023-02-19T12:45:22.270Z,57.15
2023-02-19T12:47:58.578Z,40.05
2023-02-19T12:50:29.845Z,57.47
2023-02-19T12:53:02.282Z,45.85
2023-02-19T12:55:36.836Z,64.20
2023-02-19T12:58:11.583Z,46.30
2023-02-19T13:00:43.541Z,52.47
2023-02-19T13:03:20.791Z,34.83
2023-02-19T13:05:54.647Z,46.50
2023-02-19T13:08:33.886Z,45.28
2023-02-19T13:11:07.521Z,51.00
2023-02-19T13:13:41.872Z,37.33
2023-02-19T13:16:15.501Z,48.50
2023-02-19T13:18:47.883Z,32.63
2023-02-19T13:21:39.663Z,40.03
2023-02-19T13:24:11.575Z,38.70
2023-02-19T13:27:11.341Z,33.50
2023-02-19T13:29:55.426Z,34.95
2023-02-19T13:32:50.287Z,26.83
2023-02-19T13:35:29.335Z,42.42
2023-02-19T13:38:03.040Z,31.13
2023-02-19T13:40:35.490Z,25.40
2023-02-19T13:43:05.224Z,30.30
2023-02-19T13:45:36.493Z,39.17
2023-02-19T13:48:16.865Z,30.65
2023-02-19T13:50:44.839Z,58.17
2023-02-19T13:53:58.578Z,20.48
2023-02-19T13:56:41.300Z,33.67
2023-02-19T13:59:36.201Z,39.13
2023-02-19T14:02:17.541Z,32.13
2023-02-19T14:04:52.046Z,31.65
2023-02-19T14:07:45.648Z,26.45
2023-02-19T14:10:15.860Z,22.83
2023-02-19T14:12:45.120Z,34.53
2023-02-19T14:15:44.176Z,33.83
2023-02-19T14:18:43.660Z,29.23
2023-02-19T14:21:18.512Z,28.38
2023-02-19T14:23:53.621Z,21.92
2023-02-19T14:26:22.467Z,51.55
2023-02-19T14:28:53.733Z,22.90
2023-02-19T14:31:30.629Z,28.75
2023-02-19T14:34:01.668Z,22.15
2023-02-19T14:36:43.967Z,20.45
2023-02-19T14:39:22.416Z,30.10
2023-02-19T14:41:53.505Z,24.48
2023-02-19T14:44:24.945Z,28.90
2023-02-19T14:46:58.052Z,16.98
2023-02-19T14:49:34.214Z,24.65
2023-02-19T14:52:07.480Z,32.30
2023-02-19T14:54:42.046Z,25.63
2023-02-19T14:57:16.990Z,23.45
2023-02-19T14:59:55.446Z,10.60
2023-02-19T15:02:25.872Z,14.30
2023-02-19T15:04:54.167Z,24.00
2023-02-19T15:07:25.472Z,23.35
2023-02-19T15:09:58.629Z,19.25
2023-02-19T15:12:29.841Z,17.17
2023-02-19T15:15:03.640Z,14.35
2023-02-19T15:17:33.976Z,18.20
2023-02-19T15:20:06.267Z,18.02
2023-02-19T15:22:37.294Z,28.48
2023-02-19T15:25:09.573Z,12.43
2023-02-19T15:27:38.719Z,23.35
2023-02-19T15:30:21.799Z,24.67
2023-02-19T15:32:54.506Z,20.17
2023-02-19T15:35:37.990Z,19.73
2023-02-19T15:38:06.772Z,12.40
2023-02-19T15:40:34.746Z,17.05
2023-02-19T15:43:02.824Z,19.63
2023-02-19T15:45:39.214Z,18.90
2023-02-19T15:48:20.562Z,14.55
2023-02-19T15:50:51.694Z,12.98
2023-02-19T15:53:22.694Z,22.02
2023-02-19T15:55:57.939Z,15.98
2023-02-19T15:58:28.607Z,16.50
2023-02-19T16:01:00.793Z,13.32
2023-02-19T16:03:30.735Z,18.33
2023-02-19T16:06:03.244Z,15.65
2023-02-19T16:08:33.244Z,17.05
2023-02-19T16:11:02.731Z,11.68
2023-02-19T16:13:32.629Z,8.80
2023-02-19T16:16:08.034Z,20.33
2023-02-19T16:18:36.767Z,12.73
2023-02-19T16:21:09.040Z,13.95
2023-02-19T16:23:42.343Z,12.82
2023-02-19T16:26:10.600Z,11.13
2023-02-19T16:28:40.158Z,31.88
2023-02-19T16:31:11.755Z,14.45
2023-02-19T16:33:46.916Z,12.43
2023-02-19T16:36:21.575Z,16.83
2023-02-19T16:39:24.250Z,12.10
2023-02-19T16:42:22.542Z,17.48
2023-02-19T16:44:50.461Z,15.30
2023-02-19T16:47:31.904Z,6.57
2023-02-19T16:50:02.953Z,15.75
2023-02-19T16:52:31.209Z,7.20
2023-02-19T16:55:16.210Z,12.15
2023-02-19T16:57:44.330Z,9.60
2023-02-19T17:00:17.822Z,7.88
2023-02-19T17:02:51.776Z,18.77
2023-02-19T17:05:21.203Z,14.55
2023-02-19T17:07:49.671Z,8.80
2023-02-19T17:10:19.246Z,15.88
2023-02-19T17:12:47.314Z,10.02
2023-02-19T17:15:15.501Z,9.80
2023-02-19T17:17:43.598Z,7.10
2023-02-19T17:20:23.959Z,23.38
2023-02-19T17:22:52.038Z,19.02
2023-02-19T17:25:20.037Z,6.93
2023-02-19T17:27:49.796Z,7.82
2023-02-19T17:30:21.716Z,8.32
2023-02-19T17:32:49.740Z,9.23
2023-02-19T17:35:19.169Z,6.70
2023-02-19T17:37:47.189Z,5.60
2023-02-19T17:40:32.126Z,11.18
2023-02-19T17:43:01.173Z,8.50
2023-02-19T17:45:32.507Z,9.23
2023-02-19T17:48:01.286Z,7.53
2023-02-19T17:50:33.205Z,7.10
2023-02-19T17:53:01.154Z,8.73
2023-02-19T17:55:29.408Z,7.60
2023-02-19T17:57:57.815Z,13.00
2023-02-19T18:00:27.862Z,13.63
2023-02-19T18:02:56.653Z,18.40
2023-02-19T18:05:25.803Z,12.38
2023-02-19T18:07:56.758Z,19.25
2023-02-19T18:10:33.234Z,24.58
2023-02-19T18:13:01.303Z,19.42
2023-02-19T18:15:30.591Z,17.30
2023-02-19T18:17:58.943Z,22.25
2023-02-19T18:20:28.662Z,24.15
2023-02-19T18:22:58.393Z,30.13
2023-02-19T18:25:26.553Z,29.40
2023-02-19T18:27:54.703Z,28.80
2023-02-19T18:30:23.814Z,31.80
2023-02-19T18:32:52.259Z,35.42
2023-02-19T18:35:21.348Z,23.58
2023-02-19T18:37:52.265Z,15.45
2023-02-19T18:40:22.608Z,25.52
2023-02-19T18:42:50.558Z,33.13
2023-02-19T18:45:18.745Z,11.45
2023-02-19T18:47:48.407Z,25.58
2023-02-19T18:50:17.800Z,15.30
2023-02-19T18:52:46.065Z,17.75
2023-02-19T18:55:14.254Z,43.15
2023-02-19T18:57:44.072Z,17.75
2023-02-19T19:00:17.116Z,16.67
2023-02-19T19:02:49.700Z,16.58
2023-02-19T19:05:22.551Z,18.30
2023-02-19T19:07:51.048Z,12.48
2023-02-19T19:10:19.693Z,22.85
2023-02-19T19:12:52.480Z,12.48
2023-02-19T19:15:20.760Z,20.13
2023-02-19T19:17:49.395Z,13.40
2023-02-19T19:20:18.912Z,10.75
2023-02-19T19:22:47.098Z,17.88
2023-02-19T19:25:15.267Z,17.00
2023-02-19T19:27:43.241Z,21.50
2023-02-19T19:30:13.944Z,16.75
2023-02-19T19:32:42.225Z,18.30
2023-02-19T19:35:10.940Z,18.60
2023-02-19T19:37:38.954Z,11.10
2023-02-19T19:40:08.497Z,10.88
2023-02-19T19:42:36.498Z,13.48
2023-02-19T19:45:05.265Z,12.25
2023-02-19T19:47:34.689Z,15.40
2023-02-19T19:50:02.680Z,16.33
2023-02-19T19:52:30.728Z,8.52
2023-02-19T19:54:58.685Z,15.55
2023-02-19T19:57:26.734Z,16.85
2023-02-19T19:59:54.767Z,19.67
2023-02-19T20:02:23.665Z,15.63
2023-02-19T20:04:53.053Z,10.18
2023-02-19T20:07:21.047Z,13.90
2023-02-19T20:09:50.017Z,21.67
2023-02-19T20:12:18.262Z,8.30
2023-02-19T20:14:47.260Z,13.07
2023-02-19T20:17:16.053Z,16.60
2023-02-19T20:19:44.059Z,9.07
2023-02-19T20:22:13.401Z,8.13
2023-02-19T20:24:41.489Z,15.07
2023-02-19T20:27:09.513Z,12.27
2023-02-19T20:29:37.576Z,9.00
2023-02-19T20:32:06.005Z,9.13
2023-02-19T20:34:34.028Z,7.40
2023-02-19T20:37:10.990Z,5.82
2023-02-19T20:39:40.397Z,8.88
2023-02-19T20:42:08.399Z,8.45
2023-02-19T20:44:36.419Z,27.88
2023-02-19T20:47:07.062Z,14.98
2023-02-19T20:49:35.200Z,6.93
2023-02-19T20:52:07.947Z,7.00
2023-02-19T20:54:38.278Z,8.90
2023-02-19T20:57:11.291Z,11.55
2023-02-19T20:59:40.671Z,12.20
2023-02-19T21:02:15.196Z,5.70
2023-02-19T21:04:43.887Z,6.85
2023-02-19T21:07:11.922Z,6.25
2023-02-19T21:09:39.977Z,4.97
2023-02-19T21:12:09.749Z,8.70
2023-02-19T21:14:37.719Z,7.90
2023-02-19T21:17:06.461Z,9.02
2023-02-19T21:19:34.571Z,8.80
2023-02-19T21:22:05.703Z,10.95
2023-02-19T21:24:33.710Z,7.68
2023-02-19T21:27:01.716Z,4.30
2023-02-19T21:29:31.052Z,8.75
2023-02-19T21:32:00.001Z,10.57
2023-02-19T21:34:30.383Z,9.55
2023-02-19T21:36:59.732Z,9.25
2023-02-19T21:39:28.414Z,8.15
2023-02-19T21:41:58.485Z,6.47
2023-02-19T21:44:27.103Z,8.13
2023-02-19T21:46:56.329Z,8.13
2023-02-19T21:49:24.260Z,10.40
2023-02-19T21:51:53.280Z,4.95
2023-02-19T21:54:24.582Z,4.55
2023-02-19T21:56:53.602Z,12.15
2023-02-19T21:59:22.745Z,5.00
2023-02-19T22:01:51.437Z,6.63
2023-02-19T22:04:24.421Z,5.53
2023-02-19T22:06:56.034Z,5.80
2023-02-19T22:09:24.018Z,6.13
2023-02-19T22:11:51.903Z,7.97
2023-02-19T22:14:19.881Z,4.43
2023-02-19T22:16:48.011Z,6.72
2023-02-19T22:19:16.401Z,7.00
2023-02-19T22:21:45.988Z,9.77
2023-02-19T22:24:19.014Z,8.32
2023-02-19T22:26:47.500Z,8.07
2023-02-19T22:29:16.679Z,5.35
2023-02-19T22:31:45.088Z,5.93
2023-02-19T22:34:13.639Z,5.97
2023-02-19T22:36:41.525Z,5.15
2023-02-19T22:39:21.890Z,14.63
2023-02-19T22:41:50.031Z,4.68
2023-02-19T22:44:18.169Z,5.95
2023-02-19T22:46:50.858Z,5.07
2023-02-19T22:49:19.608Z,12.70
2023-02-19T22:51:54.621Z,10.60
2023-02-19T22:54:26.853Z,10.32
2023-02-19T22:56:55.061Z,6.72
2023-02-19T22:59:23.805Z,7.18
2023-02-19T23:01:52.336Z,6.00
2023-02-19T23:04:21.252Z,4.03
2023-02-19T23:06:49.323Z,5.00
2023-02-19T23:09:20.355Z,5.25
2023-02-19T23:11:50.003Z,4.88
2023-02-19T23:14:19.912Z,4.55
2023-02-19T23:16:48.216Z,5.25
2023-02-19T23:19:17.101Z,6.63
2023-02-19T23:21:45.999Z,5.40
2023-02-19T23:24:17.515Z,6.18
2023-02-19T23:26:47.411Z,3.80
2023-02-19T23:29:19.213Z,6.25
2023-02-19T23:31:47.634Z,7.32
2023-02-19T23:34:17.260Z,4.95
2023-02-19T23:36:46.494Z,7.80
2023-02-19T23:39:16.341Z,5.65
2023-02-19T23:41:47.540Z,5.30
2023-02-19T23:44:17.130Z,10.85
2023-02-19T23:46:45.206Z,6.28
2023-02-19T23:49:13.602Z,5.07
2023-02-19T23:51:41.668Z,3.95
2023-02-19T23:54:09.850Z,5.35
2023-02-19T23:56:37.917Z,4.47
2023-02-19T23:59:05.875Z,5.43
